createdAt,value
2019-05-17T00:01:57.718Z,9.70
2019-05-17T00:04:27.070Z,9.70
2019-05-17T00:06:57.008Z,9.70
2019-05-17T00:09:26.789Z,9.70
2019-05-17T00:11:56.808Z,9.80
2019-05-17T00:14:30.063Z,9.80
2019-05-17T00:16:59.763Z,9.70
2019-05-17T00:19:29.688Z,9.80
2019-05-17T00:22:02.176Z,9.60
2019-05-17T00:24:32.342Z,9.60
2019-05-17T00:27:02.459Z,9.70
2019-05-17T00:29:32.294Z,9.70
2019-05-17T00:32:01.755Z,9.80
2019-05-17T00:34:31.672Z,9.80
2019-05-17T00:37:04.007Z,9.70
2019-05-17T00:39:36.501Z,9.60
2019-05-17T00:42:07.210Z,9.80
2019-05-17T00:44:37.029Z,9.80
2019-05-17T00:47:09.572Z,9.70
2019-05-17T00:49:39.866Z,9.70
2019-05-17T00:52:09.537Z,9.70
2019-05-17T00:54:49.269Z,9.60
2019-05-17T00:57:20.712Z,9.60
2019-05-17T00:59:50.523Z,9.70
2019-05-17T01:02:20.691Z,9.60
2019-05-17T01:04:50.978Z,9.60
2019-05-17T01:07:21.008Z,9.60
2019-05-17T01:09:52.245Z,9.60
2019-05-17T01:12:21.356Z,9.60
2019-05-17T01:14:50.875Z,9.50
2019-05-17T01:17:21.421Z,9.40
2019-05-17T01:19:51.624Z,9.50
2019-05-17T01:22:27.111Z,9.50
2019-05-17T01:24:57.868Z,9.50
2019-05-17T01:27:27.452Z,9.40
2019-05-17T01:29:58.168Z,9.40
2019-05-17T01:32:29.362Z,9.40
2019-05-17T01:34:59.758Z,9.40
2019-05-17T01:37:29.642Z,9.30
2019-05-17T01:39:59.121Z,9.30
2019-05-17T01:42:29.385Z,9.30
2019-05-17T01:45:00.968Z,9.40
2019-05-17T01:47:30.400Z,9.20
2019-05-17T01:50:02.532Z,9.10
2019-05-17T01:52:36.927Z,9.00
2019-05-17T01:55:06.790Z,9.10
2019-05-17T01:57:37.230Z,9.00
2019-05-17T02:00:07.640Z,8.90
2019-05-17T02:02:39.915Z,8.90
2019-05-17T02:05:09.818Z,9.10
2019-05-17T02:07:39.139Z,9.30
2019-05-17T02:10:13.015Z,9.30
2019-05-17T02:12:43.082Z,9.30
2019-05-17T02:15:16.542Z,9.20
2019-05-17T02:17:46.800Z,9.30
2019-05-17T02:20:17.213Z,9.10
2019-05-17T02:22:47.635Z,9.00
2019-05-17T02:25:20.528Z,9.00
2019-05-17T02:27:52.355Z,9.00
2019-05-17T02:30:23.310Z,8.90
2019-05-17T02:32:54.389Z,8.90
2019-05-17T02:35:24.046Z,8.80
2019-05-17T02:37:53.628Z,8.90
2019-05-17T02:40:23.481Z,8.90
2019-05-17T02:42:55.844Z,8.80
2019-05-17T02:45:25.192Z,8.70
2019-05-17T02:47:56.694Z,8.80
2019-05-17T02:50:25.779Z,8.80
2019-05-17T02:52:55.598Z,8.80
2019-05-17T02:55:24.885Z,8.70
2019-05-17T02:57:55.285Z,8.70
2019-05-17T03:00:26.749Z,8.80
2019-05-17T03:03:03.010Z,8.70
2019-05-17T03:05:33.746Z,8.70
2019-05-17T03:08:04.247Z,8.70
2019-05-17T03:10:36.352Z,8.70
2019-05-17T03:13:06.303Z,8.60
2019-05-17T03:15:36.528Z,8.60
2019-05-17T03:18:06.053Z,8.40
2019-05-17T03:20:35.376Z,8.50
2019-05-17T03:23:05.624Z,8.60
2019-05-17T03:25:35.305Z,8.50
2019-05-17T03:28:04.432Z,8.40
2019-05-17T03:30:37.191Z,8.40
2019-05-17T03:33:07.996Z,8.50
2019-05-17T03:35:38.774Z,8.50
2019-05-17T03:38:08.415Z,8.50
2019-05-17T03:41:03.292Z,8.50
2019-05-17T03:43:13.584Z,8.50
2019-05-17T03:45:42.638Z,8.50
2019-05-17T03:48:13.035Z,8.30
2019-05-17T03:50:43.597Z,8.30
2019-05-17T03:53:14.507Z,8.30
2019-05-17T03:55:47.278Z,8.30
2019-05-17T03:58:16.808Z,8.20
2019-05-17T04:00:48.826Z,8.00
2019-05-17T04:03:18.377Z,8.00
2019-05-17T04:05:52.663Z,8.10
2019-05-17T04:08:22.929Z,8.10
2019-05-17T04:10:52.962Z,8.20
2019-05-17T04:13:23.676Z,8.10
2019-05-17T04:15:55.257Z,8.10
2019-05-17T04:18:24.837Z,8.20
2019-05-17T04:20:55.132Z,8.20
2019-05-17T04:23:24.608Z,8.20
2019-05-17T04:25:54.540Z,8.30
2019-05-17T04:28:24.302Z,8.30
2019-05-17T04:30:54.988Z,8.30
2019-05-17T04:33:27.653Z,8.30
2019-05-17T04:35:57.381Z,8.40
2019-05-17T04:38:26.779Z,8.40
2019-05-17T04:40:56.315Z,8.50
2019-05-17T04:43:26.117Z,8.50
2019-05-17T04:45:55.820Z,8.60
2019-05-17T04:48:25.294Z,8.90
2019-05-17T04:50:55.486Z,9.10
2019-05-17T04:53:24.582Z,9.10
2019-05-17T04:55:54.411Z,9.00
2019-05-17T04:58:24.000Z,8.90
2019-05-17T05:00:54.791Z,9.00
2019-05-17T05:03:24.598Z,9.00
2019-05-17T05:06:02.647Z,9.10
2019-05-17T05:08:33.000Z,9.30
2019-05-17T05:11:04.710Z,9.40
2019-05-17T05:13:34.499Z,9.20
2019-05-17T05:16:06.095Z,9.30
2019-05-17T05:18:37.198Z,9.40
2019-05-17T05:21:12.894Z,9.40
2019-05-17T05:23:44.632Z,9.40
2019-05-17T05:26:15.560Z,9.30
2019-05-17T05:28:49.699Z,9.10
2019-05-17T05:31:42.798Z,9.20
2019-05-17T05:34:12.995Z,9.20
2019-05-17T05:36:44.957Z,9.30
2019-05-17T05:39:16.393Z,9.30
2019-05-17T05:41:47.899Z,9.50
2019-05-17T05:44:21.604Z,9.40
2019-05-17T05:46:55.485Z,9.50
2019-05-17T05:49:31.903Z,9.70
2019-05-17T05:52:06.163Z,9.70
2019-05-17T05:54:42.377Z,9.80
2019-05-17T05:57:13.836Z,9.80
2019-05-17T05:59:45.375Z,10.00
2019-05-17T06:02:26.702Z,10.00
2019-05-17T06:04:48.596Z,10.00
2019-05-17T06:07:22.107Z,10.10
2019-05-17T06:10:02.282Z,10.30
2019-05-17T06:12:32.226Z,10.40
2019-05-17T06:15:04.959Z,10.30
2019-05-17T06:17:37.470Z,10.30
2019-05-17T06:20:14.044Z,10.40
2019-05-17T06:22:43.832Z,10.30
2019-05-17T06:25:23.118Z,10.40
2019-05-17T06:27:52.702Z,10.60
2019-05-17T06:30:32.209Z,10.80
2019-05-17T06:33:02.605Z,11.10
2019-05-17T06:35:37.269Z,11.20
2019-05-17T06:38:08.992Z,11.30
2019-05-17T06:40:38.283Z,11.30
2019-05-17T06:43:14.678Z,11.50
2019-05-17T06:45:45.807Z,11.70
2019-05-17T06:48:17.628Z,11.70
2019-05-17T06:50:51.818Z,11.70
2019-05-17T06:53:23.479Z,11.90
2019-05-17T06:55:53.539Z,11.80
2019-05-17T06:58:23.787Z,11.80
2019-05-17T07:00:53.327Z,12.10
2019-05-17T07:03:23.624Z,12.30
2019-05-17T07:05:55.128Z,12.50
2019-05-17T07:08:26.641Z,12.60
2019-05-17T07:10:56.497Z,12.60
2019-05-17T07:13:30.090Z,12.80
2019-05-17T07:16:00.369Z,13.00
2019-05-17T07:18:30.251Z,13.20
2019-05-17T07:21:02.812Z,13.30
2019-05-17T07:23:32.160Z,13.40
2019-05-17T07:26:02.335Z,13.60
2019-05-17T07:28:32.207Z,13.70
2019-05-17T07:31:02.119Z,13.90
2019-05-17T07:33:31.900Z,13.90
2019-05-17T07:36:03.419Z,13.90
2019-05-17T07:38:32.868Z,13.90
2019-05-17T07:41:03.178Z,14.00
2019-05-17T07:43:32.511Z,14.10
2019-05-17T07:46:02.953Z,14.20
2019-05-17T07:48:32.761Z,14.30
2019-05-17T07:51:04.778Z,14.50
2019-05-17T07:53:37.155Z,14.70
2019-05-17T07:56:13.022Z,14.80
2019-05-17T07:58:45.735Z,14.80
2019-05-17T08:01:17.217Z,14.90
2019-05-17T08:03:50.393Z,15.00
2019-05-17T08:06:22.069Z,15.20
2019-05-17T08:08:54.645Z,15.30
2019-05-17T08:11:26.132Z,15.60
2019-05-17T08:14:26.681Z,15.60
2019-05-17T08:16:44.268Z,15.80
2019-05-17T08:19:14.344Z,15.90
2019-05-17T08:21:50.256Z,16.30
2019-05-17T08:24:23.502Z,16.50
2019-05-17T08:26:53.726Z,16.60
2019-05-17T08:29:29.785Z,17.20
2019-05-17T08:32:40.538Z,17.60
2019-05-17T08:35:12.099Z,18.40
2019-05-17T08:37:42.776Z,19.30
2019-05-17T08:40:19.796Z,20.00
2019-05-17T08:42:51.909Z,20.60
2019-05-17T08:45:21.987Z,22.20
2019-05-17T08:47:53.413Z,22.70
2019-05-17T08:50:26.511Z,22.20
2019-05-17T08:52:56.144Z,21.70
2019-05-17T08:55:30.380Z,21.70
2019-05-17T08:58:01.597Z,22.30
2019-05-17T09:00:32.218Z,22.70
2019-05-17T09:03:05.275Z,22.70
2019-05-17T09:05:36.025Z,22.50
2019-05-17T09:08:07.789Z,22.60
2019-05-17T09:10:36.991Z,23.30
2019-05-17T09:13:06.441Z,24.20
2019-05-17T09:15:40.265Z,25.00
2019-05-17T09:18:12.639Z,25.60
2019-05-17T09:20:49.340Z,26.40
2019-05-17T09:23:19.856Z,27.00
2019-05-17T09:25:50.153Z,27.10
2019-05-17T09:28:20.559Z,26.10
2019-05-17T09:30:50.829Z,26.50
2019-05-17T09:33:20.082Z,26.80
2019-05-17T09:35:50.119Z,26.40
2019-05-17T09:38:20.482Z,26.50
2019-05-17T09:40:51.625Z,27.10
2019-05-17T09:43:21.161Z,27.00
2019-05-17T09:45:55.908Z,28.10
2019-05-17T09:48:27.126Z,28.10
2019-05-17T09:50:56.820Z,28.20
2019-05-17T09:53:30.467Z,28.00
2019-05-17T09:56:00.477Z,29.00
2019-05-17T09:58:30.165Z,28.90
2019-05-17T10:01:01.371Z,29.00
2019-05-17T10:03:30.892Z,28.30
2019-05-17T10:06:01.014Z,28.70
2019-05-17T10:08:30.645Z,28.60
2019-05-17T10:11:08.356Z,28.70
2019-05-17T10:13:31.828Z,28.20
2019-05-17T10:16:01.211Z,28.80
2019-05-17T10:18:31.008Z,28.90
2019-05-17T10:21:00.443Z,28.70
2019-05-17T10:23:31.199Z,27.90
2019-05-17T10:26:01.059Z,28.10
2019-05-17T10:28:30.298Z,27.20
2019-05-17T10:31:02.383Z,26.70
2019-05-17T10:33:33.006Z,25.50
2019-05-17T10:36:04.480Z,24.00
2019-05-17T10:38:35.800Z,22.60
2019-05-17T10:41:05.070Z,21.80
2019-05-17T10:43:39.148Z,20.90
2019-05-17T10:46:10.699Z,20.30
2019-05-17T10:48:41.199Z,19.90
2019-05-17T10:51:13.517Z,19.80
2019-05-17T10:53:43.110Z,19.60
2019-05-17T10:56:13.795Z,19.40
2019-05-17T10:58:44.356Z,19.40
2019-05-17T11:01:13.888Z,19.20
2019-05-17T11:03:44.603Z,19.30
2019-05-17T11:06:14.349Z,19.40
2019-05-17T11:08:43.595Z,19.30
2019-05-17T11:11:13.543Z,19.30
2019-05-17T11:13:43.743Z,19.40
2019-05-17T11:16:13.430Z,19.40
2019-05-17T11:18:43.674Z,19.30
2019-05-17T11:21:12.395Z,19.10
2019-05-17T11:23:40.922Z,19.20
2019-05-17T11:26:09.366Z,19.10
2019-05-17T11:28:37.719Z,19.20
2019-05-17T11:31:05.842Z,19.30
2019-05-17T11:33:34.028Z,19.10
2019-05-17T11:36:02.110Z,19.10
2019-05-17T11:38:30.604Z,19.10
2019-05-17T11:41:18.427Z,19.00
2019-05-17T11:43:32.700Z,19.00
2019-05-17T11:46:01.870Z,18.80
2019-05-17T11:48:31.185Z,18.90
2019-05-17T11:51:02.575Z,18.90
2019-05-17T11:53:31.923Z,19.00
2019-05-17T11:56:02.862Z,19.00
2019-05-17T11:58:30.998Z,19.10
2019-05-17T12:00:59.479Z,19.00
2019-05-17T12:03:29.251Z,18.90
2019-05-17T12:05:58.433Z,18.90
2019-05-17T12:08:28.192Z,19.00
2019-05-17T12:10:59.760Z,19.00
2019-05-17T12:13:29.484Z,19.00
2019-05-17T12:15:58.622Z,18.90
2019-05-17T12:18:28.638Z,18.90
2019-05-17T12:21:01.246Z,18.90
2019-05-17T12:23:30.632Z,18.90
2019-05-17T12:25:59.929Z,18.90
2019-05-17T12:28:29.383Z,18.90
2019-05-17T12:30:58.705Z,18.90
2019-05-17T12:33:29.017Z,19.00
2019-05-17T12:36:01.147Z,19.20
2019-05-17T12:38:31.147Z,19.10
2019-05-17T12:41:01.733Z,19.10
2019-05-17T12:43:31.064Z,19.10
2019-05-17T12:46:01.689Z,19.20
2019-05-17T12:48:31.646Z,19.30
2019-05-17T12:51:01.191Z,19.30
2019-05-17T12:53:30.887Z,19.40
2019-05-17T12:56:00.764Z,19.60
2019-05-17T12:58:31.068Z,19.60
2019-05-17T13:01:02.171Z,19.60
2019-05-17T13:03:31.193Z,19.60
2019-05-17T13:06:04.230Z,19.60
2019-05-17T13:08:33.985Z,19.60
2019-05-17T13:11:03.157Z,19.50
2019-05-17T13:13:32.655Z,19.40
2019-05-17T13:16:16.925Z,19.30
2019-05-17T13:18:33.908Z,19.30
2019-05-17T13:21:03.661Z,19.40
2019-05-17T13:23:32.855Z,19.50
2019-05-17T13:26:02.065Z,19.50
2019-05-17T13:28:31.581Z,19.50
2019-05-17T13:31:01.144Z,19.50
2019-05-17T13:33:31.166Z,19.50
2019-05-17T13:36:00.306Z,19.50
2019-05-17T13:38:29.771Z,19.60
2019-05-17T13:40:58.864Z,19.60
2019-05-17T13:43:28.470Z,19.60
2019-05-17T13:45:57.834Z,19.50
2019-05-17T13:48:31.658Z,19.50
2019-05-17T13:51:01.057Z,19.60
2019-05-17T13:53:30.600Z,19.50
2019-05-17T13:56:00.475Z,19.40
2019-05-17T13:58:30.253Z,19.40
2019-05-17T14:01:00.982Z,19.50
2019-05-17T14:03:31.286Z,19.60
2019-05-17T14:06:01.066Z,19.70
2019-05-17T14:08:31.503Z,19.70
2019-05-17T14:11:01.352Z,19.70
2019-05-17T14:13:31.016Z,19.80
2019-05-17T14:16:00.638Z,19.80
2019-05-17T14:18:30.832Z,19.90
2019-05-17T14:21:02.706Z,19.70
2019-05-17T14:23:32.327Z,19.80
2019-05-17T14:26:02.057Z,19.80
2019-05-17T14:28:31.854Z,19.80
2019-05-17T14:31:01.675Z,19.70
2019-05-17T14:33:31.474Z,19.70
2019-05-17T14:36:01.466Z,19.60
2019-05-17T14:38:31.450Z,19.60
2019-05-17T14:41:06.493Z,19.70
2019-05-17T14:43:32.060Z,19.70
2019-05-17T14:46:01.479Z,19.70
2019-05-17T14:48:35.048Z,19.60
2019-05-17T14:51:05.414Z,19.60
2019-05-17T14:53:34.697Z,19.80
2019-05-17T14:56:03.899Z,19.90
2019-05-17T14:58:33.101Z,19.80
2019-05-17T15:01:02.923Z,19.80
2019-05-17T15:03:33.300Z,19.80
2019-05-17T15:06:04.362Z,19.90
2019-05-17T15:08:33.635Z,19.90
2019-05-17T15:11:03.103Z,19.90
2019-05-17T15:13:32.943Z,19.90
2019-05-17T15:16:02.439Z,19.80
2019-05-17T15:18:32.418Z,19.70
2019-05-17T15:21:02.065Z,19.80
2019-05-17T15:23:31.338Z,19.70
2019-05-17T15:26:00.945Z,19.70
2019-05-17T15:28:30.465Z,19.70
2019-05-17T15:31:00.121Z,19.70
2019-05-17T15:33:29.297Z,19.60
2019-05-17T15:35:59.863Z,19.60
2019-05-17T15:38:30.119Z,19.60
2019-05-17T15:40:59.728Z,19.60
2019-05-17T15:43:29.517Z,19.60
2019-05-17T15:45:59.722Z,19.60
2019-05-17T15:48:29.446Z,19.60
2019-05-17T15:50:59.142Z,19.50
2019-05-17T15:53:29.728Z,19.60
2019-05-17T15:55:59.173Z,19.60
2019-05-17T15:58:28.450Z,19.50
2019-05-17T16:00:58.007Z,19.50
2019-05-17T16:03:27.310Z,19.50
2019-05-17T16:05:56.851Z,19.50
2019-05-17T16:08:29.460Z,19.50
2019-05-17T16:10:58.047Z,19.60
2019-05-17T16:13:27.598Z,19.60
2019-05-17T16:15:56.817Z,19.70
2019-05-17T16:18:26.194Z,19.70
2019-05-17T16:20:56.003Z,19.70
2019-05-17T16:23:28.857Z,19.60
2019-05-17T16:25:58.570Z,19.60
2019-05-17T16:28:28.244Z,19.70
2019-05-17T16:30:58.345Z,19.60
2019-05-17T16:33:28.669Z,19.50
2019-05-17T16:35:58.192Z,19.50
2019-05-17T16:38:27.809Z,19.50
2019-05-17T16:40:57.916Z,19.30
2019-05-17T16:43:27.403Z,19.30
2019-05-17T16:45:57.062Z,19.20
2019-05-17T16:48:26.646Z,19.10
2019-05-17T16:50:56.563Z,19.00
2019-05-17T16:53:26.428Z,18.90
2019-05-17T16:55:55.803Z,18.90
2019-05-17T16:58:25.707Z,19.00
2019-05-17T17:00:55.457Z,18.90
2019-05-17T17:03:25.083Z,19.00
2019-05-17T17:05:55.082Z,19.00
2019-05-17T17:08:25.025Z,19.00
2019-05-17T17:10:54.512Z,19.00
2019-05-17T17:13:32.696Z,18.90
2019-05-17T17:15:55.542Z,18.80
2019-05-17T17:18:28.436Z,18.80
2019-05-17T17:20:57.691Z,18.90
2019-05-17T17:23:27.786Z,18.80
2019-05-17T17:25:57.459Z,18.70
2019-05-17T17:28:27.040Z,18.70
2019-05-17T17:30:56.239Z,18.70
2019-05-17T17:33:27.071Z,18.60
2019-05-17T17:35:59.484Z,18.50
2019-05-17T17:38:29.263Z,18.60
2019-05-17T17:40:59.368Z,18.60
2019-05-17T17:43:31.328Z,18.50
2019-05-17T17:46:04.156Z,18.50
2019-05-17T17:48:33.444Z,18.50
2019-05-17T17:51:04.398Z,18.40
2019-05-17T17:53:36.719Z,18.40
2019-05-17T17:56:06.272Z,18.30
2019-05-17T17:58:36.130Z,18.20
2019-05-17T18:01:05.483Z,18.20
2019-05-17T18:03:37.158Z,18.20
2019-05-17T18:06:07.089Z,18.20
2019-05-17T18:08:36.257Z,18.20
2019-05-17T18:11:10.053Z,18.20
2019-05-17T18:13:40.049Z,18.10
2019-05-17T18:16:09.243Z,18.10
2019-05-17T18:18:40.097Z,18.10
2019-05-17T18:21:11.209Z,18.10
2019-05-17T18:23:41.808Z,18.00
2019-05-17T18:26:11.669Z,18.00
2019-05-17T18:28:43.814Z,17.80
2019-05-17T18:31:14.988Z,17.80
2019-05-17T18:33:43.974Z,17.80
2019-05-17T18:36:15.591Z,17.80
2019-05-17T18:38:50.550Z,17.70
2019-05-17T18:41:19.734Z,17.60
2019-05-17T18:43:48.814Z,17.50
2019-05-17T18:46:18.314Z,17.40
2019-05-17T18:48:48.634Z,17.30
2019-05-17T18:51:17.208Z,17.30
2019-05-17T18:53:47.705Z,17.20
2019-05-17T18:56:16.189Z,17.20
2019-05-17T18:58:46.642Z,17.10
2019-05-17T19:01:16.219Z,17.10
2019-05-17T19:03:45.761Z,17.00
2019-05-17T19:06:15.396Z,17.00
2019-05-17T19:08:44.774Z,17.10
2019-05-17T19:11:14.687Z,17.00
2019-05-17T19:13:43.910Z,16.90
2019-05-17T19:16:12.933Z,16.90
2019-05-17T19:18:43.241Z,16.80
2019-05-17T19:21:15.398Z,16.70
2019-05-17T19:23:51.236Z,16.60
2019-05-17T19:26:20.447Z,16.60
2019-05-17T19:28:50.243Z,16.50
2019-05-17T19:31:20.957Z,16.50
2019-05-17T19:33:50.491Z,16.50
2019-05-17T19:36:20.572Z,16.40
2019-05-17T19:38:52.109Z,16.40
2019-05-17T19:41:24.643Z,16.30
2019-05-17T19:43:53.746Z,16.30
2019-05-17T19:46:23.181Z,16.30
2019-05-17T19:48:53.183Z,16.20
2019-05-17T19:51:27.383Z,16.30
2019-05-17T19:54:04.978Z,16.30
2019-05-17T19:56:36.935Z,16.30
2019-05-17T19:59:06.965Z,16.30
2019-05-17T20:01:36.423Z,16.20
2019-05-17T20:04:08.084Z,16.20
2019-05-17T20:06:37.144Z,16.10
2019-05-17T20:09:08.423Z,16.20
2019-05-17T20:11:42.387Z,16.20
2019-05-17T20:14:16.174Z,16.10
2019-05-17T20:16:46.423Z,16.10
2019-05-17T20:19:18.960Z,16.00
2019-05-17T20:22:08.725Z,15.90
2019-05-17T20:24:37.823Z,16.00
2019-05-17T20:27:07.459Z,15.90
2019-05-17T20:29:37.731Z,15.90
2019-05-17T20:32:08.280Z,15.80
2019-05-17T20:34:39.132Z,15.80
2019-05-17T20:37:09.187Z,15.80
2019-05-17T20:39:38.316Z,15.80
2019-05-17T20:42:08.197Z,15.70
2019-05-17T20:44:42.935Z,15.70
2019-05-17T20:47:13.117Z,15.60
2019-05-17T20:49:42.741Z,15.60
2019-05-17T20:52:12.677Z,15.60
2019-05-17T20:54:45.993Z,15.40
2019-05-17T20:57:17.010Z,15.40
2019-05-17T20:59:46.503Z,15.30
2019-05-17T21:02:16.286Z,15.30
2019-05-17T21:04:46.752Z,15.30
2019-05-17T21:07:17.345Z,15.20
2019-05-17T21:09:47.434Z,15.20
2019-05-17T21:12:18.365Z,15.20
2019-05-17T21:14:47.766Z,15.20
2019-05-17T21:17:17.777Z,15.10
2019-05-17T21:19:48.144Z,15.10
2019-05-17T21:22:17.413Z,15.10
2019-05-17T21:24:46.709Z,15.00
2019-05-17T21:27:16.665Z,15.00
2019-05-17T21:29:47.723Z,15.00
2019-05-17T21:32:17.944Z,14.90
2019-05-17T21:34:47.252Z,14.90
2019-05-17T21:37:16.670Z,14.80
2019-05-17T21:39:45.743Z,14.80
2019-05-17T21:42:15.762Z,14.80
2019-05-17T21:44:44.816Z,14.70
2019-05-17T21:47:14.069Z,14.80
2019-05-17T21:49:43.679Z,14.80
2019-05-17T21:52:13.027Z,14.80
2019-05-17T21:54:43.663Z,14.80
2019-05-17T21:57:12.898Z,14.80
2019-05-17T21:59:42.439Z,14.80
2019-05-17T22:02:12.824Z,14.70
2019-05-17T22:04:42.251Z,14.70
2019-05-17T22:07:11.285Z,14.60
2019-05-17T22:09:40.597Z,14.60
2019-05-17T22:12:12.025Z,14.50
2019-05-17T22:14:41.159Z,14.50
2019-05-17T22:17:10.350Z,14.50
2019-05-17T22:19:40.320Z,14.50
2019-05-17T22:22:10.010Z,14.40
2019-05-17T22:24:40.616Z,14.40
2019-05-17T22:27:09.748Z,14.40
2019-05-17T22:29:38.922Z,14.30
2019-05-17T22:32:08.116Z,14.20
2019-05-17T22:34:37.444Z,14.10
2019-05-17T22:37:06.602Z,14.10
2019-05-17T22:39:35.622Z,14.00
2019-05-17T22:42:05.463Z,14.00
2019-05-17T22:44:35.255Z,14.00
2019-05-17T22:47:04.779Z,14.10
2019-05-17T22:49:34.508Z,13.90
2019-05-17T22:52:03.581Z,13.90
2019-05-17T22:54:33.020Z,13.80
2019-05-17T22:57:02.177Z,13.80
2019-05-17T22:59:31.462Z,13.70
2019-05-17T23:02:02.529Z,13.60
2019-05-17T23:04:32.349Z,13.60
2019-05-17T23:07:01.980Z,13.60
2019-05-17T23:09:31.068Z,13.50
2019-05-17T23:12:00.787Z,13.50
2019-05-17T23:14:30.524Z,13.50
2019-05-17T23:16:59.628Z,13.50
2019-05-17T23:19:29.015Z,13.60
2019-05-17T23:21:58.777Z,13.50
2019-05-17T23:24:29.432Z,13.50
2019-05-17T23:26:59.592Z,13.40
2019-05-17T23:29:29.495Z,13.40
2019-05-17T23:31:58.727Z,13.40
2019-05-17T23:34:37.929Z,13.40
2019-05-17T23:37:07.896Z,13.30
2019-05-17T23:39:37.519Z,13.30
2019-05-17T23:42:06.713Z,13.30
2019-05-17T23:44:36.686Z,13.40
2019-05-17T23:47:07.381Z,13.50
2019-05-17T23:49:36.833Z,13.40
2019-05-17T23:52:06.169Z,13.30
2019-05-17T23:54:35.743Z,13.30
2019-05-17T23:57:05.432Z,13.20
2019-05-17T23:59:35.377Z,13.20
